createdAt,value
2019-04-21T00:00:06.212Z,0.00
2019-04-21T00:01:05.478Z,0.00
2019-04-21T00:02:03.272Z,0.00
2019-04-21T00:03:13.257Z,0.00
2019-04-21T00:04:16.172Z,0.00
2019-04-21T00:05:24.735Z,0.00
2019-04-21T00:06:27.032Z,0.00
2019-04-21T00:07:20.329Z,0.00
2019-04-21T00:08:37.606Z,0.00
2019-04-21T00:09:31.311Z,0.00
2019-04-21T00:10:28.462Z,0.00
2019-04-21T00:11:22.585Z,0.00
2019-04-21T00:12:38.913Z,0.00
2019-04-21T00:13:20.471Z,0.00
2019-04-21T00:14:14.159Z,0.00
2019-04-21T00:15:14.614Z,0.00
2019-04-21T00:16:07.592Z,0.00
2019-04-21T00:17:07.920Z,0.00
2019-04-21T00:18:06.823Z,0.00
2019-04-21T00:19:10.323Z,0.00
2019-04-21T00:20:13.786Z,0.00
2019-04-21T00:21:10.987Z,0.00
2019-04-21T00:22:14.894Z,0.00
2019-04-21T00:23:24.265Z,0.00
2019-04-21T00:24:16.268Z,0.00
2019-04-21T00:25:21.352Z,0.00
2019-04-21T00:26:23.973Z,0.00
2019-04-21T00:27:23.262Z,0.00
2019-04-21T00:28:28.977Z,0.00
2019-04-21T00:29:27.076Z,0.00
2019-04-21T00:30:21.830Z,0.00
2019-04-21T00:31:22.387Z,0.00
2019-04-21T00:32:19.568Z,0.00
2019-04-21T00:33:12.455Z,0.00
2019-04-21T00:34:04.674Z,0.00
2019-04-21T00:35:09.993Z,0.00
2019-04-21T00:36:11.457Z,0.00
2019-04-21T00:37:15.204Z,0.00
2019-04-21T00:38:24.946Z,0.00
2019-04-21T00:40:02.206Z,0.00
2019-04-21T00:40:22.362Z,0.00
2019-04-21T00:41:26.083Z,0.00
2019-04-21T00:42:25.433Z,0.00
2019-04-21T00:43:24.151Z,0.00
2019-04-21T00:44:14.260Z,0.00
2019-04-21T00:45:20.577Z,0.00
2019-04-21T00:46:17.514Z,0.00
2019-04-21T00:47:28.041Z,0.00
2019-04-21T00:48:31.801Z,0.00
2019-04-21T00:49:19.661Z,0.00
2019-04-21T00:50:25.628Z,0.00
2019-04-21T00:51:36.034Z,0.00
2019-04-21T00:52:43.645Z,0.00
2019-04-21T00:53:29.603Z,0.00
2019-04-21T00:54:34.708Z,0.00
2019-04-21T00:56:30.409Z,0.00
2019-04-21T00:57:32.612Z,0.00
2019-04-21T00:58:28.665Z,0.00
2019-04-21T00:59:28.190Z,0.00
2019-04-21T01:00:30.927Z,0.00
2019-04-21T01:01:27.516Z,0.00
2019-04-21T01:02:26.370Z,0.00
2019-04-21T01:03:26.447Z,0.00
2019-04-21T01:04:33.828Z,0.00
2019-04-21T01:05:26.681Z,0.00
2019-04-21T01:06:31.038Z,0.00
2019-04-21T01:07:29.074Z,0.00
2019-04-21T01:08:28.229Z,0.00
2019-04-21T01:09:23.732Z,0.00
2019-04-21T01:10:17.483Z,0.00
2019-04-21T01:11:23.841Z,0.00
2019-04-21T01:12:32.117Z,0.00
2019-04-21T01:13:27.328Z,0.00
2019-04-21T01:14:35.842Z,0.00
2019-04-21T01:15:30.645Z,0.00
2019-04-21T01:16:27.259Z,0.00
2019-04-21T01:17:27.645Z,0.00
2019-04-21T01:18:29.512Z,0.00
2019-04-21T01:19:26.951Z,0.00
2019-04-21T01:20:16.481Z,0.00
2019-04-21T01:21:14.046Z,0.00
2019-04-21T01:22:05.911Z,0.00
2019-04-21T01:23:06.442Z,0.00
2019-04-21T01:24:13.416Z,0.00
2019-04-21T01:25:14.504Z,0.00
2019-04-21T01:26:20.968Z,0.00
2019-04-21T01:27:15.818Z,0.00
2019-04-21T01:28:24.630Z,0.00
2019-04-21T01:29:22.439Z,0.00
2019-04-21T01:30:29.520Z,0.00
2019-04-21T01:31:22.966Z,0.00
2019-04-21T01:32:29.623Z,0.00
2019-04-21T01:33:33.054Z,0.00
2019-04-21T01:34:31.458Z,0.00
2019-04-21T01:35:25.751Z,0.00
2019-04-21T01:36:26.020Z,0.00
2019-04-21T01:37:34.437Z,0.00
2019-04-21T01:38:32.589Z,0.00
2019-04-21T01:39:31.803Z,0.00
2019-04-21T01:40:31.443Z,0.00
2019-04-21T01:41:37.186Z,0.00
2019-04-21T01:42:25.626Z,0.00
2019-04-21T01:43:27.736Z,0.00
2019-04-21T01:44:29.885Z,0.00
2019-04-21T01:45:30.696Z,0.00
2019-04-21T01:46:28.148Z,0.00
2019-04-21T01:47:20.132Z,0.00
2019-04-21T01:48:25.721Z,0.00
2019-04-21T01:49:21.936Z,0.00
2019-04-21T01:50:25.883Z,0.00
2019-04-21T01:51:23.569Z,0.00
2019-04-21T01:53:34.786Z,0.00
2019-04-21T01:54:31.729Z,0.00
2019-04-21T01:55:30.786Z,0.00
2019-04-21T01:56:24.196Z,0.00
2019-04-21T01:57:24.347Z,0.00
2019-04-21T01:58:19.393Z,0.00
2019-04-21T01:59:18.414Z,0.00
2019-04-21T02:00:21.387Z,0.00
2019-04-21T02:01:28.580Z,0.00
2019-04-21T02:02:29.439Z,0.00
2019-04-21T02:04:37.200Z,0.00
2019-04-21T02:05:32.903Z,0.00
2019-04-21T02:06:29.045Z,0.00
2019-04-21T02:07:27.177Z,0.00
2019-04-21T02:08:27.401Z,0.00
2019-04-21T02:09:29.484Z,0.00
2019-04-21T02:10:37.255Z,0.00
2019-04-21T02:11:30.057Z,0.00
2019-04-21T02:12:31.641Z,0.00
2019-04-21T02:13:23.235Z,0.00
2019-04-21T02:14:33.272Z,0.00
2019-04-21T02:15:29.931Z,0.00
2019-04-21T02:16:28.226Z,0.00
2019-04-21T02:17:29.474Z,0.00
2019-04-21T02:18:29.218Z,0.00
2019-04-21T02:19:26.465Z,0.00
2019-04-21T02:20:24.436Z,0.00
2019-04-21T02:21:22.073Z,0.00
2019-04-21T02:22:35.245Z,0.00
2019-04-21T02:23:57.427Z,0.00
2019-04-21T02:24:38.763Z,0.00
2019-04-21T02:25:35.318Z,0.00
2019-04-21T02:26:37.713Z,0.00
2019-04-21T02:27:31.111Z,0.00
2019-04-21T02:28:40.041Z,0.00
2019-04-21T02:29:37.743Z,0.00
2019-04-21T02:31:05.336Z,0.00
2019-04-21T02:32:44.299Z,0.00
2019-04-21T02:33:51.085Z,0.00
2019-04-21T02:36:58.531Z,0.00
2019-04-21T02:37:46.756Z,0.00
2019-04-21T02:38:52.900Z,0.00
2019-04-21T02:39:40.597Z,0.00
2019-04-21T02:41:51.672Z,0.00
2019-04-21T02:42:46.320Z,0.00
2019-04-21T02:43:44.791Z,0.00
2019-04-21T02:44:46.301Z,0.00
2019-04-21T02:45:43.492Z,0.00
2019-04-21T02:46:42.317Z,0.00
2019-04-21T02:47:48.311Z,0.00
2019-04-21T02:48:50.153Z,0.00
2019-04-21T02:49:53.589Z,0.00
2019-04-21T02:50:42.979Z,0.00
2019-04-21T02:53:05.225Z,0.00
2019-04-21T02:55:38.729Z,0.00
2019-04-21T02:56:48.881Z,0.00
2019-04-21T02:57:41.422Z,0.00
2019-04-21T02:59:42.453Z,0.00
2019-04-21T03:00:44.952Z,0.00
2019-04-21T03:02:48.987Z,0.00
2019-04-21T03:04:46.697Z,0.00
2019-04-21T03:05:48.728Z,0.00
2019-04-21T03:06:39.346Z,0.00
2019-04-21T03:07:45.607Z,0.00
2019-04-21T03:09:35.725Z,0.00
2019-04-21T03:10:49.931Z,0.00
2019-04-21T03:11:35.085Z,0.00
2019-04-21T03:12:38.459Z,0.00
2019-04-21T03:14:56.130Z,0.00
2019-04-21T03:16:33.047Z,0.00
2019-04-21T03:18:54.630Z,0.00
2019-04-21T03:21:49.117Z,0.00
2019-04-21T03:22:42.357Z,0.00
2019-04-21T03:23:52.098Z,0.00
2019-04-21T03:25:20.364Z,0.00
2019-04-21T03:26:48.900Z,0.00
2019-04-21T03:27:48.801Z,0.00
2019-04-21T03:28:35.625Z,0.00
2019-04-21T03:29:48.281Z,0.00
2019-04-21T03:31:06.396Z,0.00
2019-04-21T03:35:14.929Z,0.00
2019-04-21T03:36:31.521Z,0.00
2019-04-21T03:37:40.195Z,0.00
2019-04-21T03:39:45.210Z,0.00
2019-04-21T03:40:44.296Z,0.00
2019-04-21T03:41:48.357Z,0.00
2019-04-21T03:43:01.944Z,0.00
2019-04-21T03:43:42.622Z,0.00
2019-04-21T03:44:55.463Z,0.00
2019-04-21T03:48:42.829Z,0.00
2019-04-21T03:49:47.449Z,4.00
2019-04-21T03:50:39.490Z,0.00
2019-04-21T03:51:50.512Z,0.00
2019-04-21T03:52:48.178Z,4.00
2019-04-21T03:53:40.490Z,4.00
2019-04-21T03:55:02.086Z,0.00
2019-04-21T03:56:59.413Z,4.00
2019-04-21T03:57:58.003Z,4.00
2019-04-21T03:59:48.798Z,8.00
2019-04-21T04:02:56.626Z,12.00
2019-04-21T04:03:57.469Z,16.00
2019-04-21T04:04:49.651Z,16.00
2019-04-21T04:05:59.632Z,20.00
2019-04-21T04:06:56.569Z,24.00
2019-04-21T04:07:49.775Z,28.00
2019-04-21T04:08:51.639Z,32.00
2019-04-21T04:09:49.679Z,40.00
2019-04-21T04:10:52.050Z,52.00
2019-04-21T04:11:43.344Z,60.00
2019-04-21T04:12:48.836Z,72.00
2019-04-21T04:13:56.393Z,88.00
2019-04-21T04:14:46.232Z,104.00
2019-04-21T04:15:45.388Z,120.00
2019-04-21T04:16:59.403Z,140.00
2019-04-21T04:17:40.374Z,160.00
2019-04-21T04:18:53.390Z,180.00
2019-04-21T04:20:47.544Z,240.00
2019-04-21T04:21:48.008Z,268.00
2019-04-21T04:22:52.589Z,296.00
2019-04-21T04:23:55.462Z,328.00
2019-04-21T04:24:49.936Z,360.00
2019-04-21T04:25:49.404Z,392.00
2019-04-21T04:26:45.435Z,428.00
2019-04-21T04:28:02.174Z,464.00
2019-04-21T04:29:06.257Z,504.00
2019-04-21T04:29:41.653Z,544.00
2019-04-21T04:30:48.797Z,584.00
2019-04-21T04:32:59.445Z,676.00
2019-04-21T04:34:00.315Z,728.00
2019-04-21T04:34:49.852Z,784.00
2019-04-21T04:37:02.026Z,912.00
2019-04-21T04:38:50.235Z,1048.00
2019-04-21T04:39:50.031Z,1116.00
2019-04-21T04:40:48.315Z,1192.00
2019-04-21T04:41:53.021Z,1268.00
2019-04-21T04:43:45.576Z,1428.00
2019-04-21T04:45:44.504Z,1592.00
2019-04-21T04:47:49.853Z,1756.00
2019-04-21T04:49:07.224Z,1844.00
2019-04-21T04:50:51.536Z,2012.00
2019-04-21T04:51:58.897Z,2100.00
2019-04-21T04:53:47.048Z,2268.00
2019-04-21T04:54:52.876Z,2356.00
2019-04-21T04:56:54.003Z,2520.00
2019-04-21T04:57:54.597Z,2604.00
2019-04-21T04:59:22.686Z,2684.00
2019-04-21T05:00:48.329Z,2848.00
2019-04-21T05:01:53.100Z,2920.00
2019-04-21T05:02:46.391Z,2992.00
2019-04-21T05:03:52.736Z,3064.00
2019-04-21T05:05:49.130Z,3192.00
2019-04-21T05:07:52.203Z,3316.00
2019-04-21T05:09:49.620Z,3436.00
2019-04-21T05:10:56.901Z,3484.00
2019-04-21T05:11:52.584Z,3536.00
2019-04-21T05:12:43.837Z,3584.00
2019-04-21T05:13:47.781Z,3628.00
2019-04-21T05:14:46.180Z,3668.00
2019-04-21T05:15:50.288Z,3700.00
2019-04-21T05:16:46.349Z,3724.00
2019-04-21T05:17:46.270Z,3760.00
2019-04-21T05:18:56.512Z,3812.00
2019-04-21T05:19:53.869Z,3868.00
2019-04-21T05:20:55.383Z,3924.00
2019-04-21T05:21:41.296Z,4000.00
2019-04-21T05:22:44.311Z,4076.00
2019-04-21T05:23:39.821Z,4160.00
2019-04-21T05:24:33.317Z,4248.00
2019-04-21T05:25:33.883Z,4340.00
2019-04-21T05:26:34.413Z,4436.00
2019-04-21T05:27:33.451Z,4528.00
2019-04-21T05:28:35.602Z,4632.00
2019-04-21T05:29:30.301Z,4736.00
2019-04-21T05:30:41.911Z,4840.00
2019-04-21T05:31:44.356Z,4936.00
2019-04-21T05:32:40.269Z,5024.00
2019-04-21T05:33:38.304Z,5108.00
2019-04-21T05:34:35.657Z,5188.00
2019-04-21T05:35:41.382Z,5256.00
2019-04-21T05:36:37.976Z,5324.00
2019-04-21T05:37:35.364Z,5388.00
2019-04-21T05:38:39.127Z,5452.00
2019-04-21T05:39:33.583Z,5508.00
2019-04-21T05:40:31.952Z,5576.00
2019-04-21T05:41:30.098Z,5640.00
2019-04-21T05:42:36.665Z,5712.00
2019-04-21T05:43:39.177Z,5784.00
2019-04-21T05:44:56.367Z,5860.00
2019-04-21T05:45:42.263Z,5932.00
2019-04-21T05:46:40.926Z,6000.00
2019-04-21T05:47:41.396Z,6068.00
2019-04-21T05:48:39.211Z,6132.00
2019-04-21T05:49:41.511Z,6196.00
2019-04-21T05:50:32.587Z,6248.00
2019-04-21T05:51:37.229Z,6300.00
2019-04-21T05:52:35.320Z,6344.00
2019-04-21T05:53:37.358Z,6392.00
2019-04-21T05:54:44.168Z,6440.00
2019-04-21T05:55:46.590Z,6484.00
2019-04-21T05:56:46.052Z,6532.00
2019-04-21T05:57:39.450Z,6580.00
2019-04-21T05:58:46.566Z,6628.00
2019-04-21T05:59:43.731Z,6672.00
2019-04-21T06:00:59.723Z,6708.00
2019-04-21T06:01:50.267Z,6744.00
2019-04-21T06:02:47.751Z,6784.00
2019-04-21T06:03:44.921Z,6820.00
2019-04-21T06:05:07.996Z,6864.00
2019-04-21T06:05:51.107Z,6908.00
2019-04-21T06:06:47.757Z,6960.00
2019-04-21T06:07:40.175Z,7012.00
2019-04-21T06:09:44.667Z,7164.00
2019-04-21T06:10:47.748Z,7240.00
2019-04-21T06:11:45.963Z,7312.00
2019-04-21T06:12:46.244Z,7376.00
2019-04-21T06:13:51.961Z,7448.00
2019-04-21T06:14:45.011Z,7520.00
2019-04-21T06:15:44.625Z,7576.00
2019-04-21T06:17:44.659Z,7648.00
2019-04-21T06:18:48.509Z,7688.00
2019-04-21T06:20:40.804Z,7768.00
2019-04-21T06:21:39.295Z,7800.00
2019-04-21T06:22:46.327Z,7836.00
2019-04-21T06:23:40.219Z,7864.00
2019-04-21T06:25:08.956Z,7896.00
2019-04-21T06:25:54.616Z,7944.00
2019-04-21T06:26:53.755Z,7980.00
2019-04-21T06:27:44.440Z,8008.00
2019-04-21T06:28:45.337Z,8036.00
2019-04-21T06:29:46.574Z,8068.00
2019-04-21T06:30:53.076Z,8096.00
2019-04-21T06:32:12.784Z,8128.00
2019-04-21T06:32:50.574Z,8168.00
2019-04-21T06:33:47.379Z,8260.00
2019-04-21T06:34:59.124Z,10772.00
2019-04-21T06:36:42.701Z,25216.00
2019-04-21T06:37:56.459Z,24832.00
2019-04-21T06:38:58.216Z,26272.00
2019-04-21T06:40:01.890Z,27168.00
2019-04-21T06:40:47.988Z,29088.00
2019-04-21T06:41:39.819Z,30176.00
2019-04-21T06:42:50.297Z,29152.00
2019-04-21T06:43:48.154Z,29088.00
2019-04-21T06:44:51.585Z,29440.00
2019-04-21T06:45:48.963Z,31072.00
2019-04-21T06:46:43.813Z,31328.00
2019-04-21T06:48:07.565Z,30656.00
2019-04-21T06:48:53.832Z,31200.00
2019-04-21T06:49:44.349Z,31456.00
2019-04-21T06:50:46.722Z,32192.00
2019-04-21T06:51:43.213Z,33664.00
2019-04-21T06:53:55.421Z,31392.00
2019-04-21T06:54:49.534Z,32896.00
2019-04-21T06:55:44.097Z,33312.00
2019-04-21T06:56:46.424Z,34208.00
2019-04-21T06:57:44.003Z,37280.00
2019-04-21T06:58:42.837Z,36512.00
2019-04-21T06:59:40.242Z,34624.00
2019-04-21T07:00:45.651Z,35136.00
2019-04-21T07:02:15.490Z,36416.00
2019-04-21T07:03:08.326Z,36096.00
2019-04-21T07:03:49.294Z,34560.00
2019-04-21T07:04:43.380Z,36000.00
2019-04-21T07:05:48.504Z,36608.00
2019-04-21T07:06:48.122Z,35456.00
2019-04-21T07:07:52.126Z,35264.00
2019-04-21T07:08:59.375Z,36064.00
2019-04-21T07:09:49.943Z,30784.00
2019-04-21T07:10:48.785Z,33664.00
2019-04-21T07:11:43.954Z,32352.00
2019-04-21T07:12:46.604Z,34560.00
2019-04-21T07:13:50.927Z,35296.00
2019-04-21T07:14:45.464Z,39360.00
2019-04-21T07:15:43.850Z,36384.00
2019-04-21T07:16:53.165Z,34432.00
2019-04-21T07:17:45.576Z,34400.00
2019-04-21T07:18:53.445Z,40576.00
2019-04-21T07:19:49.966Z,44128.00
2019-04-21T07:20:49.127Z,45888.00
2019-04-21T07:21:45.554Z,45920.00
2019-04-21T07:22:47.808Z,44704.00
2019-04-21T07:23:45.869Z,42432.00
2019-04-21T07:24:42.800Z,45920.00
2019-04-21T07:25:48.328Z,47520.00
2019-04-21T07:26:42.720Z,46368.00
2019-04-21T07:27:50.627Z,48704.00
2019-04-21T07:28:45.965Z,52896.00
2019-04-21T07:29:48.752Z,52960.00
2019-04-21T07:30:43.841Z,50752.00
2019-04-21T07:31:54.403Z,48704.00
2019-04-21T07:32:47.376Z,48000.00
2019-04-21T07:33:53.977Z,50336.00
2019-04-21T07:34:46.138Z,55968.00
2019-04-21T07:35:44.500Z,57728.00
2019-04-21T07:36:50.874Z,56608.00
2019-04-21T07:37:52.267Z,57856.00
2019-04-21T07:38:41.201Z,58976.00
2019-04-21T07:39:45.153Z,55008.00
2019-04-21T07:40:38.939Z,51680.00
2019-04-21T07:41:38.797Z,52992.00
2019-04-21T07:42:39.952Z,56992.00
2019-04-21T07:43:40.968Z,58816.00
2019-04-21T07:44:40.875Z,60096.00
2019-04-21T07:45:40.156Z,59424.00
2019-04-21T07:46:40.911Z,57184.00
2019-04-21T07:47:47.741Z,55840.00
2019-04-21T07:48:43.126Z,57056.00
2019-04-21T07:49:46.662Z,57184.00
2019-04-21T07:50:48.734Z,58560.00
2019-04-21T07:51:40.439Z,58880.00
2019-04-21T07:52:49.085Z,59200.00
2019-04-21T07:53:49.863Z,59488.00
2019-04-21T07:54:57.571Z,59616.00
2019-04-21T07:56:33.282Z,59936.00
2019-04-21T07:57:39.137Z,57216.00
2019-04-21T07:58:54.180Z,57024.00
2019-04-21T07:59:55.118Z,60032.00
2019-04-21T08:00:51.225Z,62048.00
2019-04-21T08:01:48.422Z,60672.00
2019-04-21T08:03:00.386Z,59328.00
2019-04-21T08:03:46.750Z,59424.00
2019-04-21T08:05:07.412Z,59424.00
2019-04-21T08:05:47.199Z,61312.00
2019-04-21T08:06:46.107Z,65248.00
2019-04-21T08:07:57.147Z,67648.00
2019-04-21T08:08:50.692Z,66496.00
2019-04-21T08:09:46.832Z,62304.00
2019-04-21T08:10:44.275Z,60128.00
2019-04-21T08:11:42.898Z,60992.00
2019-04-21T08:12:41.955Z,62336.00
2019-04-21T08:14:43.866Z,64768.00
2019-04-21T08:15:44.274Z,66848.00
2019-04-21T08:16:51.178Z,66848.00
2019-04-21T08:17:47.340Z,64672.00
2019-04-21T08:18:47.442Z,63360.00
2019-04-21T08:19:43.020Z,63264.00
2019-04-21T08:20:46.220Z,65888.00
2019-04-21T08:21:55.817Z,69536.00
2019-04-21T08:23:41.608Z,74944.00
2019-04-21T08:24:51.824Z,76000.00
2019-04-21T08:25:53.640Z,75072.00
2019-04-21T08:26:51.765Z,73024.00
2019-04-21T08:27:55.560Z,70976.00
2019-04-21T08:28:45.753Z,70112.00
2019-04-21T08:29:46.224Z,69376.00
2019-04-21T08:30:43.294Z,70624.00
2019-04-21T08:34:55.821Z,86656.00
2019-04-21T08:36:46.156Z,77760.00
2019-04-21T08:37:43.092Z,73952.00
2019-04-21T08:38:49.563Z,73312.00
2019-04-21T08:39:55.031Z,71552.00
2019-04-21T08:41:45.290Z,73600.00
2019-04-21T08:42:44.791Z,80800.00
2019-04-21T08:43:48.072Z,86208.00
2019-04-21T08:44:47.929Z,87424.00
2019-04-21T08:45:49.653Z,84032.00
2019-04-21T08:46:56.809Z,78880.00
2019-04-21T08:47:45.872Z,79168.00
2019-04-21T08:48:49.470Z,85568.00
2019-04-21T08:49:49.051Z,93088.00
2019-04-21T08:50:47.582Z,98208.00
2019-04-21T08:51:50.404Z,98176.00
2019-04-21T08:52:52.209Z,94272.00
2019-04-21T08:54:52.025Z,86784.00
2019-04-21T08:55:58.506Z,87648.00
2019-04-21T08:56:46.866Z,82624.00
2019-04-21T08:58:00.890Z,81408.00
2019-04-21T08:58:52.891Z,79616.00
2019-04-21T08:59:50.657Z,79008.00
2019-04-21T09:00:48.792Z,77504.00
2019-04-21T09:01:48.878Z,82112.00
2019-04-21T09:02:47.393Z,89536.00
2019-04-21T09:03:52.070Z,99456.00
2019-04-21T09:04:49.091Z,100544.00
2019-04-21T09:05:55.272Z,97440.00
2019-04-21T09:06:58.612Z,94400.00
2019-04-21T09:07:53.771Z,94656.00
2019-04-21T09:08:51.963Z,97920.00
2019-04-21T09:09:46.767Z,97312.00
2019-04-21T09:10:47.014Z,95040.00
2019-04-21T09:11:47.546Z,88736.00
2019-04-21T09:12:46.120Z,85088.00
2019-04-21T09:13:47.677Z,89344.00
2019-04-21T09:14:50.685Z,92640.00
2019-04-21T09:15:47.955Z,94976.00
2019-04-21T09:16:47.650Z,97120.00
2019-04-21T09:17:41.422Z,101056.00
2019-04-21T09:18:41.909Z,103072.00
2019-04-21T09:20:53.342Z,99936.00
2019-04-21T09:21:49.947Z,93856.00
2019-04-21T09:22:50.581Z,95136.00
2019-04-21T09:23:45.330Z,100704.00
2019-04-21T09:24:46.854Z,103456.00
2019-04-21T09:25:55.400Z,107648.00
2019-04-21T09:26:46.027Z,109152.00
2019-04-21T09:27:46.785Z,106816.00
2019-04-21T09:28:39.581Z,102528.00
2019-04-21T09:29:36.722Z,100800.00
2019-04-21T09:30:33.922Z,100544.00
2019-04-21T09:31:36.592Z,101344.00
2019-04-21T09:32:32.990Z,96928.00
2019-04-21T09:33:36.227Z,95936.00
2019-04-21T09:34:36.411Z,94944.00
2019-04-21T09:35:31.433Z,94240.00
2019-04-21T09:36:38.225Z,93216.00
2019-04-21T09:37:40.907Z,91264.00
2019-04-21T09:38:37.040Z,102624.00
2019-04-21T09:39:33.209Z,94528.00
2019-04-21T09:40:37.345Z,83008.00
2019-04-21T09:41:34.386Z,65376.00
2019-04-21T09:42:36.056Z,70464.00
2019-04-21T09:43:39.466Z,66304.00
2019-04-21T09:44:35.066Z,63648.00
2019-04-21T09:45:30.806Z,58720.00
2019-04-21T09:46:35.499Z,63200.00
2019-04-21T09:47:40.524Z,64256.00
2019-04-21T09:48:45.633Z,66720.00
2019-04-21T09:49:32.914Z,64864.00
2019-04-21T09:50:31.807Z,63648.00
2019-04-21T09:51:32.504Z,68800.00
2019-04-21T09:52:39.671Z,78752.00
2019-04-21T09:53:36.002Z,85632.00
2019-04-21T09:54:33.993Z,93248.00
2019-04-21T09:55:41.759Z,100064.00
2019-04-21T09:56:40.329Z,101280.00
2019-04-21T09:57:41.470Z,100480.00
2019-04-21T09:58:38.686Z,101472.00
2019-04-21T09:59:35.590Z,100832.00
2019-04-21T10:00:43.553Z,95968.00
2019-04-21T10:01:45.072Z,93152.00
2019-04-21T10:02:37.520Z,90560.00
2019-04-21T10:03:36.171Z,85760.00
2019-04-21T10:04:31.702Z,90176.00
2019-04-21T10:05:31.815Z,93088.00
2019-04-21T10:06:32.921Z,98272.00
2019-04-21T10:07:37.037Z,99552.00
2019-04-21T10:08:31.931Z,109632.00
2019-04-21T10:09:33.239Z,110560.00
2019-04-21T10:10:32.118Z,113696.00
2019-04-21T10:11:33.199Z,103424.00
2019-04-21T10:12:33.142Z,95392.00
2019-04-21T10:13:32.160Z,90848.00
2019-04-21T10:14:33.002Z,88960.00
2019-04-21T10:15:33.244Z,97856.00
2019-04-21T10:16:32.335Z,110624.00
2019-04-21T10:17:33.037Z,118112.00
2019-04-21T10:18:33.701Z,119520.00
2019-04-21T10:19:32.486Z,109568.00
2019-04-21T10:20:32.895Z,105088.00
2019-04-21T10:21:33.844Z,97664.00
2019-04-21T10:22:33.013Z,95520.00
2019-04-21T10:23:33.554Z,87744.00
2019-04-21T10:24:33.995Z,84832.00
2019-04-21T10:25:32.825Z,87424.00
2019-04-21T10:26:33.338Z,86336.00
2019-04-21T10:27:32.893Z,88512.00
2019-04-21T10:28:32.997Z,91264.00
2019-04-21T10:29:34.623Z,93984.00
2019-04-21T10:30:33.115Z,103968.00
2019-04-21T10:31:34.535Z,114016.00
2019-04-21T10:32:34.332Z,118912.00
2019-04-21T10:33:34.214Z,120672.00
2019-04-21T10:34:33.293Z,122976.00
2019-04-21T10:35:33.397Z,116768.00
2019-04-21T10:36:33.369Z,111520.00
2019-04-21T10:37:45.483Z,100480.00
2019-04-21T10:38:40.778Z,96736.00
2019-04-21T10:39:33.724Z,100288.00
2019-04-21T10:40:35.272Z,100768.00
2019-04-21T10:41:33.681Z,108416.00
2019-04-21T10:42:33.743Z,106272.00
2019-04-21T10:43:33.750Z,109440.00
2019-04-21T10:44:34.707Z,105184.00
2019-04-21T10:45:34.907Z,94016.00
2019-04-21T10:46:34.901Z,91680.00
2019-04-21T10:47:34.579Z,86912.00
2019-04-21T10:48:35.975Z,89728.00
2019-04-21T10:49:34.940Z,88704.00
2019-04-21T10:50:34.817Z,87328.00
2019-04-21T10:51:35.137Z,89728.00
2019-04-21T10:52:35.898Z,91040.00
2019-04-21T10:53:34.558Z,101248.00
2019-04-21T10:54:58.458Z,104416.00
2019-04-21T10:55:48.677Z,110624.00
2019-04-21T10:56:38.788Z,109632.00
2019-04-21T10:57:34.876Z,114080.00
2019-04-21T10:58:34.556Z,108224.00
2019-04-21T10:59:35.316Z,97120.00
2019-04-21T11:00:34.679Z,67552.00
2019-04-21T11:01:34.872Z,48320.00
2019-04-21T11:02:34.984Z,47392.00
2019-04-21T11:03:35.290Z,46048.00
2019-04-21T11:04:37.396Z,48192.00
2019-04-21T11:05:34.937Z,52448.00
2019-04-21T11:06:35.000Z,56928.00
2019-04-21T11:07:52.222Z,59072.00
2019-04-21T11:08:40.935Z,58528.00
2019-04-21T11:09:36.102Z,63680.00
2019-04-21T11:10:36.020Z,68128.00
2019-04-21T11:11:35.281Z,72704.00
2019-04-21T11:12:37.741Z,72384.00
2019-04-21T11:13:36.742Z,68512.00
2019-04-21T11:14:35.591Z,73632.00
2019-04-21T11:15:35.465Z,67712.00
2019-04-21T11:16:35.566Z,67488.00
2019-04-21T11:17:36.443Z,61440.00
2019-04-21T11:18:35.927Z,78880.00
2019-04-21T11:19:36.785Z,63104.00
2019-04-21T11:20:37.146Z,49952.00
2019-04-21T11:21:36.678Z,43904.00
2019-04-21T11:22:36.925Z,54432.00
2019-04-21T11:23:36.249Z,44416.00
2019-04-21T11:24:36.708Z,45952.00
2019-04-21T11:25:36.006Z,50112.00
2019-04-21T11:26:36.087Z,49024.00
2019-04-21T11:27:37.245Z,52096.00
2019-04-21T11:28:36.758Z,59104.00
2019-04-21T11:29:37.166Z,64416.00
2019-04-21T11:30:36.270Z,70592.00
2019-04-21T11:31:36.892Z,69536.00
2019-04-21T11:32:37.089Z,69568.00
2019-04-21T11:33:37.584Z,72832.00
2019-04-21T11:34:36.795Z,75104.00
2019-04-21T11:35:37.169Z,88192.00
2019-04-21T11:36:37.501Z,85920.00
2019-04-21T11:37:37.784Z,90528.00
2019-04-21T11:38:54.235Z,90176.00
2019-04-21T11:39:48.505Z,88224.00
2019-04-21T11:40:37.965Z,92800.00
2019-04-21T11:41:36.895Z,96544.00
2019-04-21T11:42:37.774Z,99840.00
2019-04-21T11:43:37.091Z,105088.00
2019-04-21T11:44:37.328Z,104832.00
2019-04-21T11:45:37.072Z,105824.00
2019-04-21T11:46:38.279Z,101152.00
2019-04-21T11:47:38.433Z,99200.00
2019-04-21T11:48:37.246Z,96896.00
2019-04-21T11:49:37.295Z,91680.00
2019-04-21T11:50:37.351Z,84800.00
2019-04-21T11:51:37.548Z,89696.00
2019-04-21T11:52:38.848Z,97408.00
2019-04-21T11:53:39.026Z,100768.00
2019-04-21T11:54:37.577Z,103968.00
2019-04-21T11:55:41.334Z,102752.00
2019-04-21T11:56:38.828Z,102880.00
2019-04-21T11:57:42.709Z,108096.00
2019-04-21T11:58:37.822Z,109472.00
2019-04-21T11:59:37.860Z,104832.00
2019-04-21T12:00:37.915Z,100192.00
2019-04-21T12:01:39.306Z,99744.00
2019-04-21T12:02:39.449Z,100896.00
2019-04-21T12:03:38.091Z,98560.00
2019-04-21T12:04:39.183Z,96192.00
2019-04-21T12:05:39.421Z,92512.00
2019-04-21T12:06:43.676Z,93760.00
2019-04-21T12:07:38.343Z,98336.00
2019-04-21T12:08:42.823Z,98496.00
2019-04-21T12:09:39.497Z,97920.00
2019-04-21T12:10:39.621Z,96768.00
2019-04-21T12:11:39.001Z,93472.00
2019-04-21T12:12:39.252Z,86976.00
2019-04-21T12:13:38.686Z,89952.00
2019-04-21T12:14:39.704Z,87616.00
2019-04-21T12:15:39.027Z,90528.00
2019-04-21T12:16:39.134Z,87968.00
2019-04-21T12:17:39.510Z,74880.00
2019-04-21T12:18:39.007Z,77408.00
2019-04-21T12:19:39.087Z,67776.00
2019-04-21T12:20:39.723Z,61696.00
2019-04-21T12:21:50.559Z,64032.00
2019-04-21T12:22:39.251Z,63744.00
2019-04-21T12:23:40.454Z,57760.00
2019-04-21T12:24:39.683Z,55872.00
2019-04-21T12:25:39.369Z,52768.00
2019-04-21T12:26:40.182Z,53408.00
2019-04-21T12:27:40.086Z,52640.00
2019-04-21T12:28:39.842Z,53472.00
2019-04-21T12:29:39.937Z,48032.00
2019-04-21T12:30:39.846Z,46624.00
2019-04-21T12:31:39.723Z,48864.00
2019-04-21T12:32:40.143Z,48864.00
2019-04-21T12:33:40.279Z,56352.00
2019-04-21T12:34:39.899Z,55296.00
2019-04-21T12:35:39.956Z,54400.00
2019-04-21T12:36:40.042Z,53376.00
2019-04-21T12:37:40.661Z,51744.00
2019-04-21T12:38:46.904Z,53952.00
2019-04-21T12:39:40.912Z,54816.00
2019-04-21T12:40:40.253Z,55904.00
2019-04-21T12:41:40.530Z,53760.00
2019-04-21T12:42:41.710Z,52960.00
2019-04-21T12:43:40.408Z,56288.00
2019-04-21T12:44:41.346Z,53664.00
2019-04-21T12:45:41.882Z,50176.00
2019-04-21T12:46:40.557Z,49216.00
2019-04-21T12:47:41.801Z,48192.00
2019-04-21T12:48:41.989Z,47744.00
2019-04-21T12:49:41.425Z,55296.00
2019-04-21T12:50:41.698Z,53248.00
2019-04-21T12:51:41.834Z,56096.00
2019-04-21T12:52:41.969Z,56544.00
2019-04-21T12:53:41.596Z,57408.00
2019-04-21T12:54:41.847Z,53248.00
2019-04-21T12:55:44.426Z,50560.00
2019-04-21T12:56:41.269Z,49856.00
2019-04-21T12:57:41.505Z,49344.00
2019-04-21T12:58:41.581Z,48832.00
2019-04-21T12:59:42.546Z,49824.00
2019-04-21T13:00:41.346Z,47744.00
2019-04-21T13:01:41.397Z,49344.00
2019-04-21T13:02:41.465Z,50048.00
2019-04-21T13:03:41.812Z,42784.00
2019-04-21T13:04:42.068Z,38048.00
2019-04-21T13:05:41.629Z,38432.00
2019-04-21T13:06:41.702Z,39520.00
2019-04-21T13:07:41.729Z,39872.00
2019-04-21T13:08:51.817Z,43744.00
2019-04-21T13:09:42.093Z,43584.00
2019-04-21T13:10:42.609Z,44544.00
2019-04-21T13:11:43.203Z,41728.00
2019-04-21T13:12:42.013Z,44576.00
2019-04-21T13:13:42.170Z,44704.00